Boynton, OK

12:49 AM CDT on April 27, 2015 (GMT -0500)
West of Muskogee | | Change Station
CLOSE
Current Station
Personal Weather Station
Location: Muskogee, OK
Elevation: 722 ft
Nearby Weather Stations

Elev 722 ft 35.77 °N, 95.44 °W | Updated 1 minute ago

Partly Cloudy
Partly Cloudy
58.3 °F
Feels Like 58.3 °F
N
0.0
Wind Variable Wind from ENE
Gusts 4.0 mph

Today
High -- | Low -- °F
--% Chance of Precip.
Yesterday
High -- | Low -- °F
Precip. -- in
6:35 AM 8:05 PM
First Quarter, 62% visible
Pressure 29.89 in
Visibility 10.0 miles
Clouds Overcast 2800 ft
Dew Point 52 °F
Humidity 78%
Rainfall 0.00 in
Snow Depth Not available.
UV 0 out of 12
Pollen 9.70 out of 12
Air Quality Not available.
Flu Activity Local Activity
METAR KOKM 270535Z AUTO 08004KT 10SM VCTS OVC028 14/11 A2989 RMK AO2 LTG DSNT ALQS T01420105

More Conditions Fewer Conditions

Pressure 29.89 in
Visibility 10.0 miles
Clouds Overcast 2800 ft
Dew Point 52 °F
Humidity 78%
Rainfall 0.00 in
Snow Depth Not available.
UV 0 out of 12
Pollen 9.70 out of 12
Air Quality Not available.
Flu Activity Local Activity
METAR KOKM 270535Z AUTO 08004KT 10SM VCTS OVC028 14/11 A2989 RMK AO2 LTG DSNT ALQS T01420105

More Conditions Fewer Conditions

The full scope of the disaster following a powerful 7.8-magnitude earthquake in Nepal may not come into view for days, but global charities are already sending emergency aid. Click to see how you can help.
Nowcast | as of 10:57 PM CDT on April 26, 2015

At 11:00 PM...National Weather Service radars detected scattered showers and isolated thunderstorms moving into portions of eastern Oklahoma. This activity was located along and west of a line from Bartlesville... to Checotah... to Antlers... and was moving toward the north northeast at around 25 miles per hour. Through 1:00 am...scattered showers and thunderstorms will continue to develop and move into eastern Oklahoma. Some of the storms could become strong... with the main threats being large hail and strong winds. Overnight...the precipitation will spread into northwest and west central Arkansas.

×

10-Day Weather Forecast

Almanac

Astronomy

Apr. 27, 2015 Rise Set
Actual Time
Civil Twilight
Nautical Twilight
Astronomical Twilight
Moon
Length of Visible Light
Length of Day
Tomorrow will be .
, % of the Moon is Illuminated

Today's Extremes

State Highs State Lows

Community

WunderPhotos

Upload Photos

1,817,267 photos uploaded!

WunderBlogs® & News

Nearby

Air Quality

  Air Quality AQ Index Pollutant
Not available.

Snow Depth

Station Depth Elevation

Earthquake Activity

City Distance Mag. Time & Date
Minimum magnitude displayed is 2.5.

Coastal Water Temperatures

Place Temperature

Stations

Nearby Weather Stations

Station Location Temp. Windchill Dew Point Humidity Wind Precip. Elev Updated Type